This is the latest recevied weather packets stored in our database for station/object IW2LSY-11. If no packets are shown the sender has not sent any weather packets the latest 10 day(s).
| Time | Temp. | Humidity | Pressure | Rain* | Wind** | Luminosity | Snow |
|---|---|---|---|---|---|---|---|
| 1777631409 | 20° C | 35% | 1026.5 hPa | - | - | 434 W/m² | - |
| 1777630810 | 18.89° C | 34% | 1026.6 hPa | - | - | 429 W/m² | - |
| 1777630210 | 18.89° C | 34% | 1026.7 hPa | - | - | 423 W/m² | - |
| 1777629611 | 18.89° C | 36% | 1026.9 hPa | - | - | 418 W/m² | - |
| 1777629011 | 18.89° C | 34% | 1026.9 hPa | - | - | 410 W/m² | - |
| 1777628411 | 19.44° C | 34% | 1027 hPa | - | - | 403 W/m² | - |
| 1777627811 | 18.89° C | 34% | 1027.1 hPa | - | - | 398 W/m² | - |
| 1777627211 | 18.33° C | 33% | 1027.1 hPa | - | - | 392 W/m² | - |
| 1777626611 | 17.78° C | 34% | 1027.2 hPa | - | - | 385 W/m² | - |
| 1777626011 | 16.67° C | 35% | 1027.3 hPa | - | - | 380 W/m² | - |
| 1777625412 | 17.78° C | 36% | 1027.3 hPa | - | - | 375 W/m² | - |
| 1777624812 | 18.89° C | 33% | 1027.3 hPa | - | - | 371 W/m² | - |
| 1777624213 | 18.89° C | 32% | 1027.4 hPa | - | - | 365 W/m² | - |
| 1777623613 | 18.89° C | 32% | 1027.4 hPa | - | - | 360 W/m² | - |
| 1777623013 | 18.33° C | 32% | 1027.4 hPa | - | - | 360 W/m² | - |
| 1777622413 | 18.33° C | 33% | 1027.4 hPa | - | - | 360 W/m² | - |
| 1777621814 | 18.89° C | 33% | 1027.3 hPa | - | - | 360 W/m² | - |
| 1777621214 | 19.44° C | 33% | 1027.3 hPa | - | - | 360 W/m² | - |
| 1777620615 | 18.89° C | 34% | 1027.3 hPa | - | - | 360 W/m² | - |
| 1777620015 | 17.22° C | 34% | 1027.2 hPa | - | - | 361 W/m² | - |
| 1777619415 | 18.33° C | 34% | 1027.3 hPa | - | - | 361 W/m² | - |
| 1777618815 | 20° C | 32% | 1027.2 hPa | - | - | 361 W/m² | - |
| 1777618215 | 19.44° C | 36% | 1027.2 hPa | - | - | 361 W/m² | - |
| 1777617605 | 18.89° C | 38% | 1027.3 hPa | - | - | 361 W/m² | - |
| 1777617005 | 16.67° C | 43% | 1027.3 hPa | - | - | 362 W/m² | - |
* Rain since midnight (hover to see other rain measurements)
** Current wind speed in m/s (hover to see current wind gust speed)